Time;durP1;ratioP1;P1;durP2;ratioP2;P2;SDS_P1;SDS_P2;PMS_P1;PMS_P2;Temp;Humidity;BMP_temperature;BMP_pressure;BME280_temperature;BME280_humidity;BME280_pressure;Samples;Min_cycle;Max_cycle;Signal;HPM_P1;HPM_P2
2023/01/03 00:00:05;;;;;;;12.43;10.00;;;;;;;3.96;100.00;102389.78;1258696;23;20762;-86
2023/01/03 00:00:36;;;;;;;16.63;10.45;;;;;;;3.96;100.00;102394.22;1261185;23;20286;-86
2023/01/03 00:01:08;;;;;;;16.55;10.90;;;;;;;3.96;100.00;102395.06;1261945;23;20648;-86
2023/01/03 00:01:40;;;;;;;18.48;11.05;;;;;;;3.98;100.00;102392.28;1268235;23;20332;-85
2023/01/03 00:02:11;;;;;;;19.63;11.52;;;;;;;3.84;100.00;102390.03;1273972;23;20792;-86
2023/01/03 00:02:43;;;;;;;14.35;12.13;;;;;;;3.88;100.00;102397.53;1268089;23;20254;-86
2023/01/03 00:03:16;;;;;;;16.90;11.02;;;;;;;3.85;100.00;102395.16;1267113;23;20253;-86
2023/01/03 00:03:48;;;;;;;14.55;9.48;;;;;;;3.78;100.00;102391.38;1264980;23;20501;-86
2023/01/03 00:04:20;;;;;;;21.15;10.88;;;;;;;3.89;100.00;102398.38;1267081;23;20257;-86
2023/01/03 00:04:52;;;;;;;15.73;11.88;;;;;;;3.86;100.00;102401.28;1258849;23;20337;-86
2023/01/03 00:05:24;;;;;;;17.00;10.52;;;;;;;3.82;100.00;102405.94;1264906;23;20273;-86
2023/01/03 00:05:55;;;;;;;19.73;10.75;;;;;;;3.81;100.00;102400.81;1271021;23;20277;-86
2023/01/03 00:06:33;;;;;;;14.57;10.18;;;;;;;3.81;100.00;102401.66;1265137;23;20260;-86
2023/01/03 00:07:05;;;;;;;14.48;10.32;;;;;;;3.76;100.00;102398.59;1267132;23;20249;-86
2023/01/03 00:07:36;;;;;;;19.80;8.93;;;;;;;3.76;100.00;102400.38;1264769;23;20273;-86
2023/01/03 00:08:09;;;;;;;14.80;9.35;;;;;;;3.69;100.00;102394.81;1267384;23;20254;-86
2023/01/03 00:08:41;;;;;;;12.75;9.35;;;;;;;3.77;100.00;102402.06;1271177;23;20276;-86
2023/01/03 00:09:19;;;;;;;14.07;9.75;;;;;;;3.62;100.00;102402.44;1264954;23;20360;-86
2023/01/03 00:09:51;;;;;;;14.55;10.65;;;;;;;3.66;100.00;102403.00;1258780;23;20274;-86
2023/01/03 00:10:23;;;;;;;20.73;9.60;;;;;;;3.71;100.00;102400.78;1264072;23;20655;-86
2023/01/03 00:10:54;;;;;;;18.67;9.32;;;;;;;3.65;100.00;102403.97;1264775;23;20309;-86
2023/01/03 00:12:25;;;;;;;21.77;8.82;;;;;;;3.63;100.00;102408.53;1258652;23;20333;-86
2023/01/03 00:13:01;;;;;;;12.60;9.65;;;;;;;3.68;100.00;102395.78;1264760;23;20270;-86
2023/01/03 00:13:33;;;;;;;12.45;9.30;;;;;;;3.69;100.00;102402.72;1259116;23;20266;-86
2023/01/03 00:14:04;;;;;;;14.15;9.60;;;;;;;3.64;100.00;102407.56;1260757;23;20255;-86
2023/01/03 00:14:38;;;;;;;14.10;8.75;;;;;;;3.72;100.00;102403.28;1272972;23;20257;-86
2023/01/03 00:15:14;;;;;;;12.20;9.38;;;;;;;3.69;100.00;102402.72;1264645;23;20504;-86
2023/01/03 00:15:46;;;;;;;19.77;10.20;;;;;;;3.67;100.00;102405.50;1259083;23;20262;-86
2023/01/03 00:16:18;;;;;;;16.42;9.90;;;;;;;3.65;100.00;102411.88;1266972;23;20665;-86
2023/01/03 00:16:52;;;;;;;16.55;10.45;;;;;;;3.72;100.00;102402.47;1270928;23;20360;-85
2023/01/03 00:17:24;;;;;;;17.08;9.73;;;;;;;3.64;100.00;102410.19;1279370;23;20267;-85
2023/01/03 00:17:56;;;;;;;19.33;10.07;;;;;;;3.75;100.00;102407.47;1277288;23;20502;-86
2023/01/03 00:18:27;;;;;;;21.17;9.07;;;;;;;3.67;100.00;102404.66;1277277;23;20279;-86
2023/01/03 00:18:59;;;;;;;20.35;10.13;;;;;;;3.72;100.00;102399.81;1264718;23;20593;-86
2023/01/03 00:19:40;;;;;;;14.77;9.23;;;;;;;3.71;100.00;102406.06;1264983;23;20392;-86
2023/01/03 00:20:11;;;;;;;24.25;10.43;;;;;;;3.64;100.00;102413.66;1261412;23;20647;-86
2023/01/03 00:20:43;;;;;;;13.82;10.27;;;;;;;3.69;100.00;102408.00;1264860;23;20403;-86
2023/01/03 00:21:14;;;;;;;15.05;11.10;;;;;;;3.74;100.00;102408.44;1266903;23;20253;-86
2023/01/03 00:21:46;;;;;;;15.75;10.30;;;;;;;3.80;100.00;102404.41;1264962;23;20897;-86
2023/01/03 00:22:18;;;;;;;16.77;9.48;;;;;;;3.77;100.00;102405.53;1264684;23;20330;-86
2023/01/03 00:22:50;;;;;;;14.10;9.82;;;;;;;3.79;100.00;102408.84;1264377;23;20663;-86
2023/01/03 00:23:21;;;;;;;15.88;11.05;;;;;;;3.85;100.00;102408.34;1261260;23;20254;-86
2023/01/03 00:23:53;;;;;;;20.23;11.48;;;;;;;3.86;100.00;102410.00;1259126;23;20385;-86
2023/01/03 00:24:25;;;;;;;18.13;11.95;;;;;;;3.95;100.00;102414.47;1261446;23;20250;-86
2023/01/03 00:24:56;;;;;;;17.30;12.13;;;;;;;4.00;100.00;102412.25;1266506;23;20261;-86
2023/01/03 00:25:28;;;;;;;27.77;13.80;;;;;;;4.09;100.00;102415.06;1268699;23;20260;-86
2023/01/03 00:26:10;;;;;;;19.83;12.95;;;;;;;4.09;100.00;102407.13;1267927;23;20305;-86
2023/01/03 00:26:42;;;;;;;14.93;10.63;;;;;;;4.05;100.00;102414.50;1264636;23;20684;-86
2023/01/03 00:27:15;;;;;;;19.38;12.32;;;;;;;4.17;100.00;102409.97;1264946;23;20273;-86
2023/01/03 00:27:46;;;;;;;22.95;13.93;;;;;;;4.25;100.00;102420.66;1264979;23;20276;-86
2023/01/03 00:28:18;;;;;;;19.17;14.13;;;;;;;4.25;100.00;102418.84;1258934;23;20665;-86
2023/01/03 00:28:49;;;;;;;16.00;12.05;;;;;;;4.23;100.00;102414.69;1264574;23;20270;-86
2023/01/03 00:29:21;;;;;;;25.40;14.27;;;;;;;4.23;100.00;102414.69;1264918;23;20265;-86
2023/01/03 00:29:53;;;;;;;19.02;13.10;;;;;;;4.28;100.00;102425.66;1271044;23;20978;-86
2023/01/03 00:30:25;;;;;;;17.83;13.45;;;;;;;4.32;100.00;102421.75;1265314;23;20762;-86
2023/01/03 00:30:56;;;;;;;23.83;13.73;;;;;;;4.29;100.00;102422.03;1264764;23;20639;-86
2023/01/03 00:31:28;;;;;;;16.58;11.93;;;;;;;4.29;100.00;102420.25;1267889;23;20595;-86
2023/01/03 00:32:00;;;;;;;22.42;13.35;;;;;;;4.30;100.00;102426.34;1265172;23;20310;-86
2023/01/03 00:32:31;;;;;;;18.73;12.80;;;;;;;4.26;100.00;102428.44;1267395;23;20258;-86
2023/01/03 00:33:03;;;;;;;21.35;13.32;;;;;;;4.28;100.00;102425.66;1259269;23;20284;-86
2023/01/03 00:33:36;;;;;;;19.50;12.30;;;;;;;4.27;100.00;102422.19;1264886;23;20331;-86
2023/01/03 00:34:08;;;;;;;20.35;13.35;;;;;;;4.35;100.00;102426.75;1266774;23;20659;-86
2023/01/03 00:34:42;;;;;;;23.90;14.40;;;;;;;4.33;100.00;102423.44;1267294;23;20261;-86
2023/01/03 00:35:14;;;;;;;18.58;13.57;;;;;;;4.30;100.00;102426.34;1260210;23;20627;-86
2023/01/03 00:35:45;;;;;;;23.70;14.38;;;;;;;4.41;100.00;102430.69;1262333;23;20261;-86
2023/01/03 00:36:17;;;;;;;21.35;14.15;;;;;;;4.42;100.00;102427.06;1261023;23;20262;-86
2023/01/03 00:36:49;;;;;;;24.63;13.95;;;;;;;4.42;100.00;102432.34;1260865;23;20290;-86
2023/01/03 00:37:20;;;;;;;19.58;14.20;;;;;;;4.41;100.00;102431.53;1270932;23;20268;-86
2023/01/03 00:37:52;;;;;;;22.70;13.20;;;;;;;4.37;100.00;102424.00;1271227;23;20332;-86
2023/01/03 00:38:24;;;;;;;23.13;14.73;;;;;;;4.43;100.00;102429.56;1273220;23;20344;-86
2023/01/03 00:38:56;;;;;;;23.23;13.70;;;;;;;4.42;100.00;102422.63;1270697;23;20363;-86
2023/01/03 00:39:27;;;;;;;30.98;15.73;;;;;;;4.43;100.00;102429.56;1270897;23;20383;-86
2023/01/03 00:39:59;;;;;;;28.88;14.50;;;;;;;4.41;100.00;102423.59;1265150;23;20329;-86
2023/01/03 00:40:30;;;;;;;22.08;14.95;;;;;;;4.42;100.00;102417.34;1264873;23;20619;-86
2023/01/03 00:41:09;;;;;;;19.65;14.05;;;;;;;4.42;100.00;102430.56;1259039;23;20262;-86
2023/01/03 00:41:41;;;;;;;22.67;13.93;;;;;;;4.39;100.00;102433.47;1259061;23;20258;-86
2023/01/03 00:42:12;;;;;;;21.30;13.40;;;;;;;4.38;100.00;102431.75;1271126;23;20614;-86
2023/01/03 00:43:35;;;;;;;23.83;13.15;;;;;;;4.32;100.00;102429.69;1265009;23;20328;-86
2023/01/03 00:44:07;;;;;;;19.55;14.05;;;;;;;4.31;100.00;102430.66;1264586;23;20281;-86
2023/01/03 00:44:38;;;;;;;21.73;12.80;;;;;;;4.32;100.00;102429.69;1266961;23;20254;-86
2023/01/03 00:45:10;;;;;;;19.48;13.07;;;;;;;4.31;100.00;102428.84;1265086;23;20313;-86
2023/01/03 00:45:45;;;;;;;18.42;13.10;;;;;;;4.31;100.00;102430.66;1267263;23;20429;-86
2023/01/03 00:46:18;;;;;;;26.52;14.77;;;;;;;4.34;100.00;102427.75;1270830;23;20272;-86
2023/01/03 00:46:50;;;;;;;20.15;14.27;;;;;;;4.39;100.00;102433.47;1270899;23;20376;-86
2023/01/03 00:47:21;;;;;;;28.63;14.30;;;;;;;4.39;100.00;102436.09;1267419;23;20321;-86
2023/01/03 00:47:53;;;;;;;23.42;13.68;;;;;;;4.37;100.00;102431.91;1264774;23;20634;-86
2023/01/03 00:48:25;;;;;;;22.60;15.00;;;;;;;4.38;100.00;102431.75;1272828;23;20764;-86
2023/01/03 00:48:56;;;;;;;25.27;13.77;;;;;;;4.39;100.00;102433.47;1271808;23;20617;-86
2023/01/03 00:49:28;;;;;;;24.88;14.90;;;;;;;4.38;100.00;102437.03;1264933;23;20297;-86
2023/01/03 00:50:00;;;;;;;22.15;13.75;;;;;;;4.40;100.00;102429.84;1264731;23;20266;-86
2023/01/03 00:50:31;;;;;;;26.35;14.68;;;;;;;4.42;100.00;102427.06;1267070;23;20745;-86
2023/01/03 00:51:15;;;;;;;25.10;15.18;;;;;;;4.34;100.00;102425.09;1264803;23;20274;-86
2023/01/03 00:51:46;;;;;;;25.35;14.07;;;;;;;4.34;100.00;102430.38;1267159;23;20649;-86
2023/01/03 00:52:18;;;;;;;31.98;16.20;;;;;;;4.35;100.00;102432.03;1264913;23;20273;-86
2023/01/03 00:52:49;;;;;;;24.67;15.55;;;;;;;4.40;100.00;102432.50;1270616;23;20278;-86
2023/01/03 00:53:21;;;;;;;19.27;14.10;;;;;;;4.45;100.00;102432.06;1258784;23;20278;-86
2023/01/03 00:53:56;;;;;;;31.92;15.80;;;;;;;4.44;100.00;102431.25;1258635;23;20270;-86
2023/01/03 00:54:28;;;;;;;28.58;15.80;;;;;;;4.49;100.00;102430.81;1258695;23;20278;-86
2023/01/03 00:54:59;;;;;;;22.45;15.02;;;;;;;4.49;100.00;102426.38;1260890;23;20277;-86
2023/01/03 00:55:33;;;;;;;26.38;15.60;;;;;;;4.50;100.00;102430.69;1265019;23;20265;-86
2023/01/03 00:56:11;;;;;;;30.75;16.73;;;;;;;4.50;100.00;102433.31;1267766;23;20348;-86
2023/01/03 00:56:44;;;;;;;19.38;13.68;;;;;;;4.51;100.00;102437.63;1270828;23;20276;-86
2023/01/03 00:57:15;;;;;;;24.55;14.48;;;;;;;4.51;100.00;102435.00;1275422;23;20257;-86
2023/01/03 00:57:47;;;;;;;24.55;14.75;;;;;;;4.53;100.00;102435.69;1266818;23;20245;-86
2023/01/03 00:58:18;;;;;;;26.50;15.35;;;;;;;4.54;100.00;102437.34;1270987;23;20574;-86
2023/01/03 00:58:50;;;;;;;27.90;14.75;;;;;;;4.53;100.00;102440.97;1272815;23;20256;-86
2023/01/03 00:59:22;;;;;;;30.80;16.63;;;;;;;4.51;100.00;102445.53;1273414;23;20335;-86
2023/01/03 00:59:53;;;;;;;24.63;16.05;;;;;;;4.45;100.00;102437.34;1277002;23;20271;-86
2023/01/03 01:00:25;;;;;;;20.80;14.07;;;;;;;4.40;100.00;102432.50;1273109;23;20257;-86
2023/01/03 01:01:03;;;;;;;30.70;17.38;;;;;;;4.49;100.00;102439.56;1273235;23;20708;-86
2023/01/03 01:01:38;;;;;;;23.60;16.42;;;;;;;4.51;100.00;102437.63;1272725;23;20280;-86
2023/01/03 01:02:19;;;;;;;23.98;15.00;;;;;;;4.52;100.00;102438.47;1270987;23;20332;-86
2023/01/03 01:02:54;;;;;;;24.30;15.80;;;;;;;4.52;100.00;102444.56;1277849;23;20298;-86
2023/01/03 01:03:26;;;;;;;29.45;16.27;;;;;;;4.58;100.00;102437.91;1277271;23;20257;-86
2023/01/03 01:04:19;;;;;;;28.55;16.90;;;;;;;4.52;100.00;102444.56;1272095;23;20253;-86
2023/01/03 01:04:52;;;;;;;24.60;15.10;;;;;;;4.52;100.00;102433.19;1258703;23;20266;-86
2023/01/03 01:05:24;;;;;;;27.55;16.17;;;;;;;4.53;100.00;102435.69;1271299;23;20272;-86
2023/01/03 01:05:55;;;;;;;32.33;16.67;;;;;;;4.51;100.00;102442.91;1258838;23;20365;-86
2023/01/03 01:06:31;;;;;;;26.02;15.50;;;;;;;4.50;100.00;102441.25;1258707;23;20662;-86
2023/01/03 01:07:03;;;;;;;22.80;15.50;;;;;;;4.52;100.00;102446.38;1258632;23;20330;-86
2023/01/03 01:07:34;;;;;;;26.85;15.30;;;;;;;4.51;100.00;102442.91;1270999;23;20273;-86
2023/01/03 01:08:07;;;;;;;23.15;14.73;;;;;;;4.50;100.00;102437.78;1265039;23;20265;-86
2023/01/03 01:08:39;;;;;;;24.45;14.90;;;;;;;4.50;100.00;102440.41;1270919;23;20336;-86
2023/01/03 01:09:13;;;;;;;25.15;16.30;;;;;;;4.52;100.00;102444.56;1271201;23;20823;-86
2023/01/03 01:09:45;;;;;;;25.05;15.43;;;;;;;4.47;100.00;102441.53;1272722;23;20261;-86
2023/01/03 01:10:18;;;;;;;21.27;13.93;;;;;;;4.46;100.00;102439.84;1262202;23;20652;-86
2023/01/03 01:11:02;;;;;;;31.90;15.25;;;;;;;4.51;100.00;102439.44;1258535;23;20266;-86
2023/01/03 01:11:33;;;;;;;28.05;16.17;;;;;;;4.46;100.00;102444.28;1252910;23;20283;-86
2023/01/03 01:12:06;;;;;;;26.67;15.85;;;;;;;4.44;100.00;102440.97;1254589;23;20283;-86
2023/01/03 01:12:37;;;;;;;28.48;17.13;;;;;;;4.49;100.00;102442.22;1253221;23;20271;-86
2023/01/03 01:13:09;;;;;;;27.23;15.07;;;;;;;4.51;100.00;102442.06;1258689;23;20293;-86
2023/01/03 01:13:43;;;;;;;23.70;17.13;;;;;;;4.47;100.00;102446.78;1267137;23;20584;-86
2023/01/03 01:14:18;;;;;;;23.90;15.52;;;;;;;4.48;100.00;102443.19;1260885;23;20398;-86
2023/01/03 01:14:50;;;;;;;25.02;15.85;;;;;;;4.49;100.00;102444.84;1260510;23;20606;-86
2023/01/03 01:15:22;;;;;;;27.00;15.88;;;;;;;4.43;100.00;102442.78;1258940;23;20797;-86
2023/01/03 01:15:53;;;;;;;24.38;15.32;;;;;;;4.45;100.00;102438.19;1252749;23;20747;-86
2023/01/03 01:16:29;;;;;;;31.00;16.08;;;;;;;4.45;100.00;102442.63;1252852;23;20270;-86
2023/01/03 01:17:05;;;;;;;26.60;15.60;;;;;;;4.46;100.00;102434.56;1267183;23;20773;-86
2023/01/03 01:17:37;;;;;;;23.77;15.18;;;;;;;4.43;100.00;102440.13;1267357;23;20716;-86
2023/01/03 01:18:09;;;;;;;24.65;16.52;;;;;;;4.43;100.00;102445.41;1264834;23;20301;-86
2023/01/03 01:18:42;;;;;;;27.02;17.08;;;;;;;4.39;100.00;102440.53;1270646;23;20276;-86
2023/01/03 01:19:14;;;;;;;24.10;15.30;;;;;;;4.38;100.00;102444.97;1277259;23;20355;-86
2023/01/03 01:19:46;;;;;;;25.27;16.73;;;;;;;4.38;100.00;102442.31;1270792;23;20733;-86
2023/01/03 01:20:18;;;;;;;16.75;12.82;;;;;;;4.30;100.00;102445.66;1270387;23;20272;-86
2023/01/03 01:20:50;;;;;;;25.38;14.75;;;;;;;4.26;100.00;102448.69;1259253;23;20302;-86
2023/01/03 01:21:27;;;;;;;32.35;16.73;;;;;;;4.26;100.00;102446.06;1258664;23;20277;-86
2023/01/03 01:21:59;;;;;;;30.27;16.55;;;;;;;4.30;100.00;102444.81;1252599;23;20279;-86
2023/01/03 01:22:32;;;;;;;20.92;15.98;;;;;;;4.29;100.00;102453.69;1266371;23;20253;-86
2023/01/03 01:23:04;;;;;;;23.63;15.68;;;;;;;4.25;100.00;102452.31;1265371;23;20280;-86
2023/01/03 01:23:37;;;;;;;22.83;15.27;;;;;;;4.26;100.00;102456.59;1265520;23;20352;-86
2023/01/03 01:24:11;;;;;;;22.73;15.85;;;;;;;4.25;100.00;102452.31;1271134;23;20355;-86
2023/01/03 01:24:48;;;;;;;24.67;15.02;;;;;;;4.14;100.00;102455.91;1271312;23;20344;-86
2023/01/03 01:25:20;;;;;;;21.50;14.38;;;;;;;4.19;100.00;102455.47;1265164;23;20749;-86
2023/01/03 01:25:52;;;;;;;24.45;14.60;;;;;;;4.17;100.00;102450.34;1267666;23;20285;-86
2023/01/03 01:26:24;;;;;;;21.40;12.48;;;;;;;4.19;100.00;102458.13;1259793;23;20859;-86
2023/01/03 01:26:55;;;;;;;22.50;14.45;;;;;;;4.17;100.00;102452.97;1273690;23;20316;-86
2023/01/03 01:27:28;;;;;;;23.98;15.65;;;;;;;4.17;100.00;102460.06;1267722;23;20254;-86
2023/01/03 01:27:59;;;;;;;24.27;15.95;;;;;;;4.22;100.00;102458.69;1261052;23;20345;-86
2023/01/03 01:28:31;;;;;;;24.67;15.43;;;;;;;4.18;100.00;102459.09;1259143;23;20754;-86
2023/01/03 01:29:03;;;;;;;21.17;15.48;;;;;;;4.12;100.00;102455.19;1267717;23;20334;-86
2023/01/03 01:29:36;;;;;;;18.58;14.20;;;;;;;4.07;100.00;102453.91;1271073;23;20729;-86
2023/01/03 01:30:09;;;;;;;32.35;16.67;;;;;;;4.11;100.00;102461.44;1259243;23;20689;-86
2023/01/03 01:30:41;;;;;;;22.15;13.73;;;;;;;4.06;100.00;102454.88;1265157;23;20273;-86
2023/01/03 01:31:15;;;;;;;20.50;13.60;;;;;;;4.02;100.00;102463.06;1259448;23;20862;-86
2023/01/03 01:31:47;;;;;;;22.10;13.35;;;;;;;3.96;100.00;102453.03;1253068;23;20296;-86
2023/01/03 01:32:18;;;;;;;21.58;13.57;;;;;;;3.97;100.00;102453.88;1253100;23;20290;-86
2023/01/03 01:32:50;;;;;;;18.33;12.93;;;;;;;3.93;100.00;102463.88;1261484;23;20254;-86
2023/01/03 01:33:21;;;;;;;21.27;13.23;;;;;;;3.89;100.00;102462.47;1268699;23;20281;-86
2023/01/03 01:33:55;;;;;;;23.83;14.07;;;;;;;3.94;100.00;102465.53;1258357;23;20274;-86
2023/01/03 01:34:26;;;;;;;23.92;14.60;;;;;;;3.94;100.00;102457.63;1261295;23;20250;-86
2023/01/03 01:34:58;;;;;;;19.98;14.93;;;;;;;3.91;100.00;102464.97;1259280;23;20703;-86
2023/01/03 01:35:30;;;;;;;19.95;13.93;;;;;;;3.88;100.00;102458.16;1261230;23;20328;-86
2023/01/03 01:36:11;;;;;;;18.67;13.40;;;;;;;3.80;100.00;102468.50;1267230;23;20322;-86
2023/01/03 01:36:44;;;;;;;26.02;11.20;;;;;;;3.72;100.00;102465.69;1277058;23;20303;-86
2023/01/03 01:37:15;;;;;;;132.27;19.65;;;;;;;3.52;100.00;102463.91;1271590;23;20068;-86
2023/01/03 01:37:47;;;;;;;49.95;16.33;;;;;;;3.56;100.00;102465.31;1261307;23;20262;-86
2023/01/03 01:38:19;;;;;;;20.65;12.85;;;;;;;3.60;100.00;102467.59;1259182;23;20396;-86
2023/01/03 01:39:00;;;;;;;22.25;13.13;;;;;;;3.65;100.00;102468.03;1259273;23;20425;-86
2023/01/03 01:39:32;;;;;;;27.33;12.30;;;;;;;3.57;100.00;102467.88;1267249;23;20257;-86
2023/01/03 01:40:04;;;;;;;42.30;13.43;;;;;;;3.55;100.00;102468.94;1255714;23;20251;-86
2023/01/03 01:40:36;;;;;;;78.68;17.25;;;;;;;3.48;100.00;102468.63;1254926;23;20318;-86
2023/01/03 01:41:11;;;;;;;27.23;14.10;;;;;;;3.48;100.00;102473.06;1259252;23;20274;-86
2023/01/03 01:44:45;;;;;;;38.63;13.48;;;;;;;3.34;100.00;102472.44;1276633;23;20364;-86
2023/01/03 01:45:16;;;;;;;20.98;11.07;;;;;;;3.32;100.00;102474.38;1277318;23;20331;-86
2023/01/03 01:45:48;;;;;;;18.48;11.85;;;;;;;3.31;100.00;102482.38;1259606;23;20277;-86
2023/01/03 01:46:23;;;;;;;29.60;14.57;;;;;;;3.33;100.00;102481.31;1265339;23;20769;-86
2023/01/03 01:46:55;;;;;;;17.98;11.93;;;;;;;3.31;100.00;102475.31;1271473;23;20257;-86
2023/01/03 01:47:47;;;;;;;17.85;12.15;;;;;;;3.30;100.00;102481.56;1265224;23;20846;-86
2023/01/03 01:48:19;;;;;;;17.70;12.07;;;;;;;3.31;100.00;102477.97;1265218;23;20609;-86
2023/01/03 01:48:55;;;;;;;17.67;12.27;;;;;;;3.25;100.00;102477.63;1259447;23;20680;-86
2023/01/03 01:49:27;;;;;;;19.40;10.90;;;;;;;3.26;100.00;102477.47;1259242;23;20357;-86
2023/01/03 01:50:17;;;;;;;15.70;12.25;;;;;;;3.28;100.00;102486.09;1259063;23;20270;-86
2023/01/03 01:50:54;;;;;;;18.50;12.27;;;;;;;3.21;100.00;102484.94;1265184;23;20272;-86
2023/01/03 01:51:28;;;;;;;16.50;11.40;;;;;;;3.19;100.00;102483.41;1273742;23;20257;-86
2023/01/03 01:52:00;;;;;;;18.33;11.57;;;;;;;3.22;100.00;102483.97;1261092;23;20265;-86
2023/01/03 01:52:34;;;;;;;15.95;10.85;;;;;;;3.22;100.00;102478.72;1269800;23;20250;-86
2023/01/03 01:53:18;;;;;;;15.45;10.45;;;;;;;3.17;100.00;102485.31;1259066;23;20484;-86
2023/01/03 01:53:50;;;;;;;14.95;11.43;;;;;;;3.18;100.00;102482.56;1259157;23;20274;-86
2023/01/03 01:54:23;;;;;;;79.40;15.40;;;;;;;3.06;100.00;102483.59;1261007;23;20598;-86
2023/01/03 01:54:54;;;;;;;17.10;12.05;;;;;;;3.11;100.00;102478.78;1259348;23;20266;-86
2023/01/03 01:55:30;;;;;;;17.40;10.10;;;;;;;3.12;100.00;102477.81;1265265;23;20352;-86
2023/01/03 01:56:02;;;;;;;15.43;11.70;;;;;;;3.11;100.00;102481.41;1271054;23;20693;-86
2023/01/03 01:56:39;;;;;;;17.02;11.38;;;;;;;3.12;100.00;102483.06;1273537;23;20315;-86
2023/01/03 01:57:14;;;;;;;19.80;13.18;;;;;;;3.13;100.00;102483.91;1265138;23;20342;-86
2023/01/03 01:57:46;;;;;;;21.27;12.98;;;;;;;3.12;100.00;102493.63;1261632;23;20945;-86
2023/01/03 01:58:19;;;;;;;17.05;11.02;;;;;;;3.16;100.00;102488.91;1259285;23;20612;-86
2023/01/03 01:58:51;;;;;;;18.48;11.57;;;;;;;3.13;100.00;102489.19;1264794;23;20272;-86
2023/01/03 01:59:23;;;;;;;90.43;16.00;;;;;;;3.09;100.00;102488.59;1265289;23;20777;-86
2023/01/03 01:59:55;;;;;;;76.88;15.48;;;;;;;3.05;100.00;102487.19;1266975;23;20726;-86
2023/01/03 02:00:27;;;;;;;111.30;16.63;;;;;;;3.12;100.00;102483.06;1271871;23;20792;-86
2023/01/03 02:00:58;;;;;;;98.43;16.30;;;;;;;3.09;100.00;102483.34;1265322;23;20364;-86
2023/01/03 02:01:30;;;;;;;26.08;12.10;;;;;;;3.07;100.00;102480.00;1267416;23;20256;-86
2023/01/03 02:02:02;;;;;;;23.88;12.10;;;;;;;3.08;100.00;102482.50;1258969;23;20607;-86
2023/01/03 02:02:34;;;;;;;17.95;12.90;;;;;;;3.14;100.00;102486.41;1265181;23;20317;-86
2023/01/03 02:03:06;;;;;;;18.73;12.45;;;;;;;3.13;100.00;102490.00;1265353;23;20635;-86
2023/01/03 02:03:38;;;;;;;20.63;12.52;;;;;;;3.19;100.00;102488.66;1258822;23;20281;-86
2023/01/03 02:04:31;;;;;;;23.55;13.40;;;;;;;3.16;100.00;102489.75;1264994;23;20265;-86
2023/01/03 02:05:06;;;;;;;30.00;11.50;;;;;;;3.19;100.00;102491.28;1259241;23;20444;-86
2023/01/03 02:05:41;;;;;;;21.92;9.95;;;;;;;3.27;100.00;102486.22;1265290;23;20705;-86
2023/01/03 02:06:14;;;;;;;34.75;10.93;;;;;;;3.21;100.00;102484.09;1265331;23;20325;-86
2023/01/03 02:06:46;;;;;;;14.15;9.38;;;;;;;3.22;100.00;102489.25;1264507;23;20350;-86
2023/01/03 02:07:18;;;;;;;26.95;9.95;;;;;;;3.24;100.00;102492.56;1267168;23;20654;-86
2023/01/03 02:07:51;;;;;;;13.45;9.38;;;;;;;3.21;100.00;102490.19;1267522;23;20246;-86
2023/01/03 02:08:23;;;;;;;21.38;10.95;;;;;;;3.20;100.00;102491.16;1270823;23;20287;-86
2023/01/03 02:08:55;;;;;;;20.85;11.27;;;;;;;3.19;100.00;102489.50;1267065;23;20269;-86
2023/01/03 02:09:27;;;;;;;54.30;10.55;;;;;;;3.10;100.00;102495.53;1271310;23;20351;-86
2023/01/03 02:09:58;;;;;;;19.48;9.70;;;;;;;3.12;100.00;102492.78;1267108;23;20756;-86
2023/01/03 02:10:48;;;;;;;101.78;13.88;;;;;;;3.14;100.00;102491.69;1271165;23;20276;-86
2023/01/03 02:13:04;;;;;;;22.95;10.40;;;;;;;3.19;100.00;102488.66;1282704;23;20252;-85
2023/01/03 02:13:07;;;;;;;28.42;9.93;;;;;;;3.27;100.00;102491.50;1267069;23;20340;-85
2023/01/03 02:14:15;;;;;;;37.30;9.70;;;;;;;3.12;100.00;102490.97;1279238;23;20294;-85
2023/01/03 02:15:10;;;;;;;12.35;9.00;;;;;;;3.05;100.00;102484.56;1277567;23;20415;-85
2023/01/03 02:15:53;;;;;;;58.83;11.23;;;;;;;3.06;100.00;102484.44;1271263;23;20641;-85
2023/01/03 02:16:31;;;;;;;23.63;11.38;;;;;;;3.07;100.00;102480.00;1272767;23;20277;-85
2023/01/03 02:17:13;;;;;;;17.08;11.65;;;;;;;3.03;100.00;102489.13;1273675;23;20263;-85
2023/01/03 02:17:48;;;;;;;15.57;10.02;;;;;;;3.02;100.00;102480.38;1264790;23;20277;-85
2023/01/03 02:18:53;;;;;;;27.67;11.23;;;;;;;2.84;100.00;102479.25;1265744;23;20291;-85
2023/01/03 02:20:01;;;;;;;23.65;8.27;;;;;;;2.87;100.00;102478.16;1276210;23;20589;-85
2023/01/03 02:20:46;;;;;;;39.35;9.82;;;;;;;2.77;100.00;102473.66;1292316;23;20258;-85
2023/01/03 02:21:40;;;;;;;12.15;7.97;;;;;;;2.77;100.00;102473.66;1288209;23;20604;-85
2023/01/03 02:22:31;;;;;;;65.38;10.77;;;;;;;2.59;100.00;102475.16;1277050;23;20427;-85
2023/01/03 02:23:15;;;;;;;37.65;12.73;;;;;;;2.51;100.00;102472.31;1282699;23;20248;-85
2023/01/03 02:24:06;;;;;;;187.70;17.35;;;;;;;2.51;100.00;102464.41;1280181;23;20275;-85
2023/01/03 02:25:19;;;;;;;16.02;8.73;;;;;;;2.50;100.00;102473.25;1274057;23;20622;-85
2023/01/03 02:26:11;;;;;;;167.55;17.52;;;;;;;2.50;100.00;102475.91;1277608;23;20621;-85
2023/01/03 02:26:56;;;;;;;106.13;13.40;;;;;;;2.56;100.00;102475.41;1283553;23;20371;-85
2023/01/03 02:27:46;;;;;;;121.50;10.88;;;;;;;2.46;100.00;102474.44;1277221;23;20268;-85
2023/01/03 02:28:40;;;;;;;101.45;9.77;;;;;;;2.49;100.00;102479.47;1280144;23;20324;-85
2023/01/03 02:29:36;;;;;;;189.50;16.02;;;;;;;2.38;100.00;102474.22;1290480;22;20259;-85
2023/01/03 02:30:28;;;;;;;121.28;13.73;;;;;;;2.37;100.00;102480.44;1283596;23;20775;-85
2023/01/03 02:31:27;;;;;;;49.78;9.85;;;;;;;2.30;100.00;102479.28;1277161;23;20276;-85
2023/01/03 02:32:18;;;;;;;167.00;15.60;;;;;;;2.24;100.00;102474.50;1277176;23;20249;-86
2023/01/03 02:33:04;;;;;;;43.35;10.50;;;;;;;2.26;100.00;102477.84;1278857;23;20335;-85
2023/01/03 02:33:58;;;;;;;41.22;7.90;;;;;;;2.27;100.00;102480.34;1270757;23;20643;-85
2023/01/03 02:34:53;;;;;;;42.55;8.00;;;;;;;2.28;100.00;102481.19;1266847;23;20331;-85
2023/01/03 02:35:30;;;;;;;158.15;16.30;;;;;;;2.05;100.00;102477.75;1268181;23;20314;-85
2023/01/03 02:36:26;;;;;;;88.70;10.70;;;;;;;2.14;100.00;102479.63;1261564;23;20407;-85
2023/01/03 02:37:01;;;;;;;129.10;15.13;;;;;;;2.11;100.00;102480.72;1265893;23;20722;-85
2023/01/03 02:37:41;;;;;;;27.60;8.40;;;;;;;2.14;100.00;102477.00;1271111;23;20269;-85
2023/01/03 02:38:25;;;;;;;231.70;19.13;;;;;;;2.11;100.00;102482.50;1271571;23;20347;-85
2023/01/03 02:39:14;;;;;;;23.95;7.25;;;;;;;2.09;100.00;102482.63;1273402;23;20260;-86
2023/01/03 02:40:10;;;;;;;73.97;12.25;;;;;;;2.09;100.00;102477.38;1271229;23;20276;-85
2023/01/03 02:40:48;;;;;;;23.65;8.30;;;;;;;2.12;100.00;102481.56;1264796;23;20353;-85
2023/01/03 02:41:32;;;;;;;22.63;9.40;;;;;;;2.16;100.00;102478.56;1265062;23;20345;-85
2023/01/03 02:43:26;;;;;;;79.20;11.35;;;;;;;2.02;100.00;102481.44;1273655;23;20281;-85
2023/01/03 02:44:25;;;;;;;27.85;9.52;;;;;;;1.88;100.00;102484.28;1273678;23;20269;-85
2023/01/03 02:45:20;;;;;;;110.60;13.98;;;;;;;1.94;100.00;102481.22;1260333;23;20278;-85
2023/01/03 02:46:00;;;;;;;108.47;12.00;;;;;;;1.89;100.00;102480.72;1263732;23;20269;-85
2023/01/03 02:46:39;;;;;;;149.40;10.68;;;;;;;1.88;100.00;102479.03;1262771;23;20272;-85
2023/01/03 02:47:14;;;;;;;63.55;9.38;;;;;;;1.87;100.00;102477.38;1267313;23;20033;-85
2023/01/03 02:47:51;;;;;;;63.45;9.27;;;;;;;1.92;100.00;102485.75;1271475;23;20296;-86
2023/01/03 02:48:37;;;;;;;181.90;16.08;;;;;;;1.82;100.00;102484.78;1265559;23;20277;-85
2023/01/03 02:49:34;;;;;;;73.60;8.70;;;;;;;1.81;100.00;102477.84;1264840;23;20273;-85